createdAt,value
2023-10-29T00:00:17.606Z,73.100000
2023-10-29T00:05:15.814Z,72.900000
2023-10-29T00:10:17.678Z,72.600000
2023-10-29T00:15:17.582Z,72.300000
2023-10-29T00:21:01.098Z,72.100000
2023-10-29T00:25:15.814Z,71.900000
2023-10-29T00:30:17.677Z,71.700000
2023-10-29T00:35:17.645Z,71.500000
2023-10-29T00:41:01.076Z,71.200000
2023-10-29T00:45:17.631Z,71.000000
2023-10-29T00:50:17.650Z,70.700000
2023-10-29T00:56:01.166Z,70.500000
2023-10-29T01:00:17.613Z,70.300000
2023-10-29T01:06:01.170Z,70.000000
2023-10-29T01:10:15.838Z,69.700000
2023-10-29T01:15:15.874Z,69.600000
2023-10-29T01:20:17.654Z,69.400000
2023-10-29T01:25:17.633Z,69.100000
2023-10-29T01:30:23.877Z,68.900000
2023-10-29T01:36:01.119Z,68.600000
2023-10-29T01:40:15.856Z,68.500000
2023-10-29T01:45:15.892Z,68.400000
2023-10-29T01:50:15.873Z,68.200000
2023-10-29T01:55:23.899Z,68.000000
2023-10-29T02:01:01.210Z,67.800000
2023-10-29T02:06:01.145Z,67.600000
2023-10-29T02:10:15.890Z,67.500000
2023-10-29T02:15:15.898Z,67.300000
2023-10-29T02:20:17.685Z,67.100000
2023-10-29T02:25:17.678Z,66.900000
2023-10-29T02:30:17.677Z,66.800000
2023-10-29T02:35:17.690Z,66.600000
2023-10-29T02:40:17.694Z,66.300000
2023-10-29T02:45:23.998Z,66.100000
2023-10-29T02:51:01.206Z,65.800000
2023-10-29T02:55:15.875Z,65.700000
2023-10-29T03:00:17.692Z,65.500000
2023-10-29T03:06:01.170Z,65.300000
2023-10-29T03:11:01.200Z,65.200000
2023-10-29T03:15:15.856Z,65.000000
2023-10-29T03:20:15.792Z,64.900000
2023-10-29T03:25:17.751Z,64.700000
2023-10-29T03:31:01.194Z,64.600000
2023-10-29T03:35:15.898Z,64.400000
2023-10-29T03:40:15.954Z,64.200000
2023-10-29T03:45:17.722Z,64.000000
2023-10-29T03:50:17.751Z,63.800000
2023-10-29T03:55:17.734Z,63.700000
2023-10-29T04:01:02.416Z,63.600000
2023-10-29T04:05:18.987Z,63.400000
2023-10-29T04:10:18.988Z,63.300000
2023-10-29T04:15:25.214Z,63.200000
2023-10-29T04:21:02.510Z,63.100000
2023-10-29T04:25:17.154Z,62.900000
2023-10-29T04:31:02.479Z,62.700000
2023-10-29T04:35:19.011Z,62.700000
2023-10-29T04:41:02.464Z,62.500000
2023-10-29T04:45:17.215Z,62.500000
2023-10-29T04:50:19.021Z,62.300000
2023-10-29T04:55:18.992Z,62.200000
2023-10-29T05:01:02.458Z,62.000000
2023-10-29T05:05:18.951Z,61.800000
2023-10-29T05:10:17.233Z,61.600000
2023-10-29T05:15:19.040Z,61.500000
2023-10-29T05:21:03.149Z,61.300000
2023-10-29T05:25:18.995Z,61.100000
2023-10-29T05:30:17.217Z,61.000000
2023-10-29T05:35:18.993Z,60.900000
2023-10-29T05:40:19.054Z,60.700000
2023-10-29T05:46:02.537Z,60.500000
2023-10-29T05:50:18.996Z,60.300000
2023-10-29T05:55:17.237Z,60.100000
2023-10-29T06:00:56.332Z,60.000000
2023-10-29T06:06:02.519Z,59.800000
2023-10-29T06:11:02.622Z,59.700000
2023-10-29T06:16:02.452Z,59.600000
2023-10-29T06:20:19.009Z,59.500000
2023-10-29T06:25:17.233Z,59.300000
2023-10-29T06:30:19.170Z,59.100000
2023-10-29T06:35:56.342Z,59.000000
2023-10-29T06:40:25.287Z,58.900000
2023-10-29T06:46:02.482Z,58.700000
2023-10-29T06:50:19.022Z,58.500000
2023-10-29T06:55:19.382Z,58.400000
2023-10-29T07:00:19.026Z,58.200000
2023-10-29T07:06:02.561Z,58.000000
2023-10-29T07:11:02.557Z,57.900000
2023-10-29T07:15:17.267Z,57.700000
2023-10-29T07:20:19.089Z,57.600000
2023-10-29T07:26:02.523Z,57.500000
2023-10-29T07:30:19.084Z,57.300000
2023-10-29T07:35:17.230Z,57.200000
2023-10-29T07:40:19.066Z,57.100000
2023-10-29T07:46:02.592Z,57.000000
2023-10-29T07:50:25.325Z,56.900000
2023-10-29T07:56:02.518Z,56.800000
2023-10-29T08:01:02.555Z,56.700000
2023-10-29T08:05:17.240Z,56.700000
2023-10-29T08:10:17.265Z,56.600000
2023-10-29T08:15:18.537Z,56.500000
2023-10-29T08:20:19.184Z,56.400000
2023-10-29T08:25:19.089Z,56.400000
2023-10-29T08:30:19.118Z,56.300000
2023-10-29T08:35:19.091Z,56.300000
2023-10-29T08:40:25.347Z,56.200000
2023-10-29T08:46:02.673Z,56.100000
2023-10-29T08:50:19.112Z,56.000000
2023-10-29T08:55:19.087Z,55.900000
2023-10-29T09:00:19.089Z,55.800000
2023-10-29T09:05:19.101Z,55.700000
2023-10-29T09:10:19.107Z,55.600000
2023-10-29T09:15:17.328Z,55.400000
2023-10-29T09:20:27.167Z,55.200000
2023-10-29T09:25:19.110Z,55.100000
2023-10-29T09:30:25.348Z,55.000000
2023-10-29T09:36:02.614Z,54.900000
2023-10-29T09:41:02.589Z,54.900000
2023-10-29T09:45:19.078Z,54.800000
2023-10-29T09:50:17.325Z,54.700000
2023-10-29T09:55:19.129Z,54.600000
2023-10-29T10:00:19.194Z,54.500000
2023-10-29T10:06:02.623Z,54.400000
2023-10-29T10:11:02.681Z,54.400000
2023-10-29T10:16:02.646Z,54.200000
2023-10-29T10:21:02.618Z,54.200000
2023-10-29T10:25:19.244Z,54.100000
2023-10-29T10:30:18.101Z,54.000000
2023-10-29T10:35:17.371Z,53.900000
2023-10-29T10:40:19.119Z,53.900000
2023-10-29T10:46:02.654Z,53.800000
2023-10-29T10:51:02.682Z,53.800000
2023-10-29T10:55:31.410Z,53.700000
2023-10-29T11:01:03.601Z,53.600000
2023-10-29T11:05:19.409Z,53.600000
2023-10-29T11:10:19.151Z,53.500000
2023-10-29T11:15:25.382Z,53.500000
2023-10-29T11:21:02.719Z,53.500000
2023-10-29T11:25:19.117Z,53.400000
2023-10-29T11:30:17.438Z,53.300000
2023-10-29T11:35:17.374Z,53.300000
2023-10-29T11:40:19.173Z,53.200000
2023-10-29T11:45:19.177Z,53.300000
2023-10-29T11:50:19.147Z,53.300000
2023-10-29T11:55:20.577Z,53.300000
2023-10-29T12:00:19.282Z,53.400000
2023-10-29T12:05:19.147Z,53.400000
2023-10-29T12:11:02.659Z,53.500000
2023-10-29T12:16:02.651Z,53.500000
2023-10-29T12:20:19.118Z,53.600000
2023-10-29T12:25:19.246Z,53.500000
2023-10-29T12:31:02.727Z,53.600000
2023-10-29T12:35:19.158Z,53.600000
2023-10-29T12:40:17.182Z,53.600000
2023-10-29T12:45:43.066Z,53.600000
2023-10-29T12:50:19.219Z,53.700000
2023-10-29T12:55:21.733Z,53.700000
2023-10-29T13:00:19.220Z,53.700000
2023-10-29T13:06:02.725Z,53.800000
2023-10-29T13:10:19.171Z,53.800000
2023-10-29T13:15:19.210Z,53.800000
2023-10-29T13:20:25.490Z,53.800000
2023-10-29T13:26:02.671Z,53.900000
2023-10-29T13:30:17.466Z,54.000000
2023-10-29T13:35:19.229Z,54.000000
2023-10-29T13:41:02.677Z,54.100000
2023-10-29T13:45:19.300Z,54.200000
2023-10-29T13:50:19.241Z,54.200000
2023-10-29T13:56:02.670Z,54.200000
2023-10-29T14:01:02.723Z,54.200000
2023-10-29T14:05:19.245Z,54.100000
2023-10-29T14:10:19.335Z,54.000000
2023-10-29T14:15:25.496Z,54.000000
2023-10-29T14:20:19.277Z,54.000000
2023-10-29T14:25:17.453Z,54.000000
2023-10-29T14:30:19.467Z,54.000000
2023-10-29T14:35:19.197Z,53.900000
2023-10-29T14:41:00.679Z,53.900000
2023-10-29T14:45:17.500Z,53.900000
2023-10-29T14:50:17.237Z,53.900000
2023-10-29T14:56:00.718Z,53.900000
2023-10-29T15:00:15.444Z,53.900000
2023-10-29T15:05:17.248Z,53.700000
2023-10-29T15:10:17.272Z,53.500000
2023-10-29T15:15:26.791Z,53.300000
2023-10-29T15:20:17.288Z,52.900000
2023-10-29T15:25:17.223Z,52.600000
2023-10-29T15:30:17.252Z,52.100000
2023-10-29T15:36:00.700Z,51.700000
2023-10-29T15:40:15.436Z,51.500000
2023-10-29T15:45:15.276Z,51.400000
2023-10-29T15:50:17.231Z,51.200000
2023-10-29T15:56:00.682Z,51.000000
2023-10-29T16:00:17.258Z,50.700000
2023-10-29T16:06:00.739Z,50.400000
2023-10-29T16:10:15.436Z,50.400000
2023-10-29T16:15:17.264Z,50.400000
2023-10-29T16:21:00.791Z,50.400000
2023-10-29T16:25:17.237Z,50.300000
2023-10-29T16:30:17.386Z,50.300000
2023-10-29T16:35:17.244Z,50.200000
2023-10-29T16:41:00.752Z,50.000000
2023-10-29T16:45:17.278Z,49.900000
2023-10-29T16:50:17.308Z,49.900000
2023-10-29T16:56:00.791Z,49.900000
2023-10-29T17:00:15.550Z,50.000000
2023-10-29T17:05:17.254Z,50.000000
2023-10-29T17:10:15.507Z,50.100000
2023-10-29T17:15:54.582Z,50.200000
2023-10-29T17:20:17.328Z,50.300000
2023-10-29T17:25:17.315Z,50.300000
2023-10-29T17:30:17.327Z,50.200000
2023-10-29T17:35:15.508Z,50.200000
2023-10-29T17:40:23.526Z,50.200000
2023-10-29T17:46:00.768Z,50.300000
2023-10-29T17:50:17.267Z,50.300000
2023-10-29T17:55:17.305Z,50.300000
2023-10-29T18:00:17.412Z,50.300000
2023-10-29T18:06:00.777Z,50.300000
2023-10-29T18:11:00.760Z,50.400000
2023-10-29T18:15:17.313Z,50.400000
2023-10-29T18:20:15.498Z,50.400000
2023-10-29T18:25:15.482Z,50.200000
2023-10-29T18:31:00.803Z,50.100000
2023-10-29T18:36:00.817Z,50.100000
2023-10-29T18:40:15.498Z,49.900000
2023-10-29T18:45:17.349Z,49.900000
2023-10-29T18:50:17.322Z,49.800000
2023-10-29T18:55:17.340Z,49.700000
2023-10-29T19:00:17.409Z,49.600000
2023-10-29T19:06:00.858Z,49.600000
2023-10-29T19:11:00.803Z,49.500000
2023-10-29T19:15:17.343Z,49.400000
2023-10-29T19:20:17.332Z,49.500000
2023-10-29T19:25:15.626Z,49.400000
2023-10-29T19:31:21.689Z,49.400000
2023-10-29T19:35:17.346Z,49.300000
2023-10-29T19:40:15.599Z,49.400000
2023-10-29T19:45:15.631Z,49.400000
2023-10-29T19:51:00.979Z,49.400000
2023-10-29T19:55:23.585Z,49.500000
2023-10-29T20:00:17.442Z,49.600000
2023-10-29T20:05:17.362Z,49.600000
2023-10-29T20:10:23.634Z,49.600000
2023-10-29T20:15:17.349Z,49.600000
2023-10-29T20:21:00.842Z,49.700000
2023-10-29T20:26:00.822Z,49.700000
2023-10-29T20:30:15.621Z,49.800000
2023-10-29T20:35:17.392Z,49.900000
2023-10-29T20:40:15.561Z,50.000000
2023-10-29T20:46:00.916Z,50.000000
2023-10-29T20:50:17.388Z,50.000000
2023-10-29T20:56:00.823Z,50.200000
2023-10-29T21:00:23.688Z,50.300000
2023-10-29T21:05:17.370Z,50.300000
2023-10-29T21:11:00.835Z,50.300000
2023-10-29T21:15:17.410Z,50.300000
2023-10-29T21:21:00.864Z,50.200000
2023-10-29T21:25:17.381Z,50.100000
2023-10-29T21:31:00.912Z,50.000000
2023-10-29T21:35:23.623Z,49.900000
2023-10-29T21:40:15.661Z,49.600000
2023-10-29T21:45:17.447Z,49.500000
2023-10-29T21:51:00.952Z,49.400000
2023-10-29T21:56:00.935Z,49.300000
2023-10-29T22:01:00.886Z,49.200000
2023-10-29T22:05:17.396Z,49.200000
2023-10-29T22:10:17.433Z,49.100000
2023-10-29T22:15:17.480Z,49.100000
2023-10-29T22:20:17.486Z,49.100000
2023-10-29T22:26:00.882Z,49.000000
2023-10-29T22:30:15.633Z,48.900000
2023-10-29T22:35:17.405Z,48.900000
2023-10-29T22:40:17.433Z,48.900000
2023-10-29T22:46:00.981Z,48.900000
2023-10-29T22:51:01.001Z,48.900000
2023-10-29T22:56:00.902Z,48.900000
2023-10-29T23:00:17.486Z,48.900000
2023-10-29T23:05:17.482Z,48.900000
2023-10-29T23:11:00.877Z,48.800000
2023-10-29T23:16:00.860Z,48.900000
2023-10-29T23:20:17.389Z,49.000000
2023-10-29T23:25:17.469Z,49.100000
2023-10-29T23:31:01.010Z,49.200000
2023-10-29T23:35:15.673Z,49.400000
2023-10-29T23:40:15.668Z,49.500000
2023-10-29T23:45:17.463Z,49.500000
2023-10-29T23:50:17.448Z,49.500000
2023-10-29T23:56:00.915Z,49.400000
